Time;durP1;ratioP1;P1;durP2;ratioP2;P2;SDS_P1;SDS_P2;PMS_P1;PMS_P2;Temp;Humidity;BMP_temperature;BMP_pressure;BME280_temperature;BME280_humidity;BME280_pressure;Samples;Min_cycle;Max_cycle;Signal;HPM_P1;HPM_P2
2022/06/27 00:00:15;;;;;;;0.30;0.30;;;19.80;42.10;;;;;;5070351;28;20200;-75
2022/06/27 00:02:41;;;;;;;0.30;0.30;;;19.70;54.90;;;;;;5070968;28;20293;-75
2022/06/27 00:05:07;;;;;;;0.40;0.40;;;19.80;44.90;;;;;;5071178;28;20205;-75
2022/06/27 00:07:32;;;;;;;0.30;0.30;;;19.80;43.50;;;;;;5070706;28;20178;-74
2022/06/27 00:09:58;;;;;;;0.30;0.30;;;19.80;60.00;;;;;;5070402;28;20166;-74
2022/06/27 00:12:23;;;;;;;0.30;0.30;;;19.70;48.50;;;;;;5070740;28;20190;-75
2022/06/27 00:14:49;;;;;;;0.30;0.30;;;19.60;98.60;;;;;;5071028;28;20632;-74
2022/06/27 00:17:15;;;;;;;0.30;0.30;;;19.60;99.90;;;;;;5070835;28;20659;-75
2022/06/27 00:19:40;;;;;;;0.33;0.33;;;19.60;92.60;;;;;;5070303;28;20174;-75
2022/06/27 00:22:06;;;;;;;0.30;0.30;;;19.60;93.40;;;;;;5070645;28;20355;-75
2022/06/27 00:24:32;;;;;;;0.30;0.30;;;19.60;99.90;;;;;;5070670;28;20181;-75
2022/06/27 00:26:57;;;;;;;0.30;0.30;;;19.50;99.90;;;;;;5070648;28;20171;-75
2022/06/27 00:29:23;;;;;;;0.30;0.30;;;19.30;99.90;;;;;;5070036;28;20178;-75
2022/06/27 00:31:49;;;;;;;0.30;0.30;;;19.30;99.90;;;;;;5070896;28;20548;-75
2022/06/27 00:34:14;;;;;;;0.40;0.40;;;19.20;99.90;;;;;;5070779;28;20179;-76
2022/06/27 00:36:40;;;;;;;0.40;0.40;;;19.20;99.90;;;;;;5070562;28;20170;-75
2022/06/27 00:39:05;;;;;;;0.30;0.30;;;19.20;99.90;;;;;;5070337;28;20232;-75
2022/06/27 00:41:31;;;;;;;0.30;0.30;;;19.00;99.90;;;;;;5070546;28;20737;-75
2022/06/27 00:43:56;;;;;;;0.20;0.20;;;18.90;99.90;;;;;;5070771;28;20601;-74
2022/06/27 00:46:22;;;;;;;0.30;0.30;;;18.70;99.90;;;;;;5070742;28;20595;-74
2022/06/27 00:48:47;;;;;;;0.40;0.40;;;18.70;99.90;;;;;;5070794;28;20190;-74
2022/06/27 00:51:13;;;;;;;0.30;0.30;;;18.70;99.90;;;;;;5070252;28;20635;-74
2022/06/27 00:53:39;;;;;;;0.30;0.30;;;18.60;99.90;;;;;;5074519;28;20643;-75
2022/06/27 00:56:05;;;;;;;0.40;0.40;;;18.80;99.90;;;;;;5074721;28;20170;-74
2022/06/27 00:58:31;;;;;;;0.30;0.30;;;18.50;99.90;;;;;;5074460;28;20691;-74
2022/06/27 01:00:56;;;;;;;0.30;0.30;;;18.50;99.90;;;;;;5073840;28;20171;-74
2022/06/27 01:03:22;;;;;;;0.30;0.30;;;18.30;99.90;;;;;;5074524;28;20199;-74
2022/06/27 01:05:54;;;;;;;0.30;0.30;;;18.30;99.90;;;;;;5074339;28;20542;-74
2022/06/27 01:08:21;;;;;;;0.30;0.30;;;18.30;99.90;;;;;;5074242;28;20795;-73
2022/06/27 01:10:47;;;;;;;0.30;0.30;;;18.20;99.90;;;;;;5074027;28;20182;-74
2022/06/27 01:13:13;;;;;;;0.30;0.30;;;18.00;99.90;;;;;;5074119;28;20209;-74
2022/06/27 01:15:40;;;;;;;0.30;0.30;;;17.80;99.90;;;;;;5074269;28;20261;-74
2022/06/27 01:18:07;;;;;;;0.30;0.30;;;17.70;99.90;;;;;;5074149;28;20218;-74
2022/06/27 01:20:32;;;;;;;0.30;0.30;;;17.60;99.90;;;;;;5073790;28;20179;-74
2022/06/27 01:22:58;;;;;;;0.30;0.30;;;17.50;99.90;;;;;;5073968;28;20260;-73
2022/06/27 01:25:25;;;;;;;0.30;0.30;;;17.50;99.90;;;;;;5055826;28;20225;-73
2022/06/27 01:27:51;;;;;;;0.20;0.20;;;17.50;99.90;;;;;;5053821;28;20226;-73
2022/06/27 01:30:16;;;;;;;0.37;0.37;;;17.40;99.90;;;;;;5053754;28;20221;-73
2022/06/27 01:32:42;;;;;;;0.30;0.30;;;17.40;99.90;;;;;;5053870;28;20596;-74
2022/06/27 01:35:08;;;;;;;0.30;0.30;;;17.40;99.90;;;;;;5053742;28;20225;-73
2022/06/27 01:37:34;;;;;;;0.40;0.40;;;17.40;99.90;;;;;;5053876;28;20210;-74
2022/06/27 01:40:00;;;;;;;0.30;0.30;;;17.50;99.90;;;;;;5053342;28;20550;-73
2022/06/27 01:42:28;;;;;;;0.30;0.30;;;17.50;99.90;;;;;;5053688;28;20230;-73
2022/06/27 01:44:53;;;;;;;0.30;0.30;;;17.50;99.90;;;;;;5053787;28;20643;-73
2022/06/27 01:47:19;;;;;;;0.33;0.33;;;17.50;99.90;;;;;;5053806;28;20199;-74
2022/06/27 01:49:45;;;;;;;0.30;0.30;;;17.50;99.90;;;;;;5053117;28;20244;-73
2022/06/27 01:52:14;;;;;;;0.30;0.30;;;17.50;99.90;;;;;;5053570;28;20210;-73
2022/06/27 01:54:40;;;;;;;0.30;0.30;;;17.50;99.90;;;;;;5053644;28;20181;-73
2022/06/27 01:57:08;;;;;;;0.47;0.47;;;17.40;99.90;;;;;;5053341;28;20202;-72
2022/06/27 01:59:34;;;;;;;0.30;0.30;;;17.50;99.90;;;;;;5053209;28;20189;-72
2022/06/27 02:02:02;;;;;;;0.30;0.30;;;17.50;99.90;;;;;;5053356;28;20668;-72
2022/06/27 02:04:29;;;;;;;0.30;0.30;;;17.60;99.90;;;;;;5052336;28;20197;-71
2022/06/27 02:06:56;;;;;;;0.30;0.30;;;17.50;99.90;;;;;;5053372;28;20267;-72
2022/06/27 02:09:22;;;;;;;0.30;0.30;;;17.60;99.90;;;;;;5052799;28;20175;-72
2022/06/27 02:11:51;;;;;;;0.30;0.30;;;17.70;99.90;;;;;;5053537;28;20203;-72
2022/06/27 02:14:18;;;;;;;0.30;0.30;;;17.60;99.90;;;;;;5053725;28;20179;-72
2022/06/27 02:16:44;;;;;;;0.40;0.40;;;17.70;99.90;;;;;;5053453;28;20175;-72
2022/06/27 02:19:17;;;;;;;0.30;0.30;;;17.70;99.90;;;;;;5052885;28;20179;-72
2022/06/27 02:21:44;;;;;;;0.30;0.30;;;17.70;99.90;;;;;;5053201;28;20195;-72
2022/06/27 02:24:11;;;;;;;0.30;0.30;;;17.60;99.90;;;;;;5052937;28;20225;-72
2022/06/27 02:26:37;;;;;;;0.30;0.30;;;17.50;99.90;;;;;;5053252;28;20288;-71
2022/06/27 02:29:03;;;;;;;0.30;0.30;;;17.50;99.90;;;;;;5052413;28;20190;-72
2022/06/27 02:31:29;;;;;;;0.30;0.30;;;17.50;99.90;;;;;;5052803;28;20731;-71
2022/06/27 02:33:56;;;;;;;0.40;0.40;;;17.40;99.90;;;;;;5053040;28;20183;-72
2022/06/27 02:36:32;;;;;;;0.30;0.30;;;17.40;99.90;;;;;;5052968;28;20233;-72
2022/06/27 02:38:59;;;;;;;0.40;0.40;;;17.40;99.90;;;;;;5052481;28;20293;-72
2022/06/27 02:41:28;;;;;;;0.30;0.30;;;17.30;99.90;;;;;;5053142;28;20179;-72
2022/06/27 02:44:00;;;;;;;0.30;0.30;;;17.40;99.90;;;;;;5052869;28;20237;-72
2022/06/27 02:46:26;;;;;;;0.40;0.40;;;17.40;99.90;;;;;;5052792;28;20179;-72
2022/06/27 02:48:52;;;;;;;0.40;0.40;;;17.40;99.90;;;;;;5052108;28;20222;-73
2022/06/27 02:51:24;;;;;;;0.30;0.30;;;17.30;99.90;;;;;;5052348;28;20207;-73
2022/06/27 02:53:57;;;;;;;0.30;0.30;;;17.30;99.90;;;;;;5052621;28;20175;-72
2022/06/27 02:56:27;;;;;;;0.30;0.30;;;17.20;99.90;;;;;;5052408;28;20540;-72
2022/06/27 02:59:06;;;;;;;0.30;0.30;;;17.20;99.90;;;;;;5052127;28;20628;-72
2022/06/27 03:01:33;;;;;;;0.30;0.30;;;17.20;99.90;;;;;;5052171;28;20215;-72
2022/06/27 03:03:59;;;;;;;0.30;0.30;;;17.20;99.90;;;;;;5052428;28;20180;-73
2022/06/27 03:06:26;;;;;;;0.30;0.30;;;17.20;99.90;;;;;;5052415;28;20211;-72
2022/06/27 03:08:51;;;;;;;0.30;0.30;;;17.10;99.90;;;;;;5051306;28;20171;-72
2022/06/27 03:11:19;;;;;;;0.30;0.30;;;17.10;99.90;;;;;;5055397;28;20272;-72
2022/06/27 03:13:45;;;;;;;0.30;0.30;;;17.00;99.90;;;;;;5059042;28;20180;-72
2022/06/27 03:16:12;;;;;;;0.40;0.40;;;17.00;99.90;;;;;;5050101;28;20211;-72
2022/06/27 03:18:37;;;;;;;0.30;0.30;;;17.00;99.90;;;;;;5054635;28;20222;-73
2022/06/27 03:21:03;;;;;;;0.30;0.30;;;17.00;99.90;;;;;;5058703;28;20224;-73
2022/06/27 03:23:29;;;;;;;0.33;0.33;;;17.00;99.90;;;;;;5051896;28;20672;-73
2022/06/27 03:25:55;;;;;;;0.40;0.40;;;17.10;99.90;;;;;;5051958;28;20182;-73
2022/06/27 03:28:21;;;;;;;0.30;0.30;;;17.10;99.90;;;;;;5051960;28;20171;-73
2022/06/27 03:30:47;;;;;;;0.30;0.30;;;17.10;99.90;;;;;;5051319;28;20171;-73
2022/06/27 03:33:13;;;;;;;0.20;0.20;;;17.10;99.90;;;;;;5051924;28;20698;-73
2022/06/27 03:35:39;;;;;;;0.30;0.30;;;17.10;99.90;;;;;;5051874;28;20640;-73
2022/06/27 03:38:04;;;;;;;0.30;0.30;;;17.20;99.90;;;;;;5051661;28;20215;-73
2022/06/27 03:40:30;;;;;;;0.30;0.30;;;17.20;99.90;;;;;;5051385;28;20712;-73
2022/06/27 03:42:56;;;;;;;0.30;0.30;;;17.20;99.90;;;;;;5058601;28;20199;-73
2022/06/27 03:45:22;;;;;;;0.30;0.30;;;17.20;99.90;;;;;;5058339;28;20258;-73
2022/06/27 03:47:49;;;;;;;0.30;0.30;;;17.20;99.90;;;;;;5052395;28;20262;-73
2022/06/27 03:50:16;;;;;;;0.30;0.30;;;17.20;99.90;;;;;;5051096;28;20174;-73
2022/06/27 03:52:41;;;;;;;0.30;0.30;;;17.30;99.90;;;;;;5058230;28;20570;-73
2022/06/27 03:55:08;;;;;;;0.30;0.30;;;17.30;99.90;;;;;;5064321;28;20670;-73
2022/06/27 03:57:47;;;;;;;0.30;0.30;;;17.30;99.90;;;;;;5053878;28;20264;-73
2022/06/27 04:00:14;;;;;;;0.30;0.30;;;17.30;99.90;;;;;;5048691;28;20694;-73
2022/06/27 04:02:39;;;;;;;0.30;0.30;;;17.20;99.90;;;;;;5051175;28;20198;-73
2022/06/27 04:05:05;;;;;;;0.40;0.40;;;17.30;99.90;;;;;;5051418;28;20171;-73
2022/06/27 04:07:31;;;;;;;0.30;0.30;;;17.30;99.90;;;;;;5051423;28;20186;-73
2022/06/27 04:09:57;;;;;;;0.30;0.30;;;17.30;99.90;;;;;;5050650;28;20266;-73
2022/06/27 04:12:23;;;;;;;0.30;0.30;;;17.30;99.90;;;;;;5051059;28;20234;-73
2022/06/27 04:14:49;;;;;;;0.37;0.37;;;17.20;99.90;;;;;;5051294;28;20194;-72
2022/06/27 04:17:15;;;;;;;0.30;0.30;;;17.20;99.90;;;;;;5051303;28;20672;-73
2022/06/27 04:19:41;;;;;;;0.30;0.30;;;17.30;99.90;;;;;;5052830;28;20179;-72
2022/06/27 04:22:08;;;;;;;0.33;0.33;;;17.30;99.90;;;;;;5051195;28;20290;-73
2022/06/27 04:24:34;;;;;;;0.40;0.40;;;17.40;99.90;;;;;;5050757;28;20695;-72
2022/06/27 04:27:00;;;;;;;0.30;0.30;;;17.40;99.90;;;;;;5051249;28;20551;-74
2022/06/27 04:29:26;;;;;;;0.30;0.30;;;17.50;99.90;;;;;;5056140;28;20186;-73
2022/06/27 04:31:52;;;;;;;0.30;0.30;;;17.50;99.90;;;;;;5060232;28;20711;-73
2022/06/27 04:34:18;;;;;;;0.40;0.40;;;17.60;99.90;;;;;;5054505;28;20187;-73
2022/06/27 04:36:45;;;;;;;0.40;0.40;;;17.60;99.90;;;;;;5054622;28;20182;-73
2022/06/27 04:39:15;;;;;;;0.30;0.30;;;17.60;99.90;;;;;;5054398;28;20297;-74
2022/06/27 04:41:44;;;;;;;0.40;0.40;;;17.70;99.90;;;;;;5054712;28;20701;-73
2022/06/27 04:44:11;;;;;;;0.30;0.30;;;17.70;99.90;;;;;;5054715;28;20262;-73
2022/06/27 04:46:37;;;;;;;0.30;0.30;;;17.80;99.90;;;;;;5054817;28;20186;-74
2022/06/27 04:49:03;;;;;;;0.30;0.30;;;17.80;99.90;;;;;;5054426;28;20559;-73
2022/06/27 04:51:29;;;;;;;0.30;0.30;;;17.80;99.90;;;;;;5054781;28;20225;-73
2022/06/27 04:53:56;;;;;;;0.40;0.40;;;17.90;99.90;;;;;;5054735;28;20175;-74
2022/06/27 04:56:22;;;;;;;0.30;0.30;;;18.00;99.90;;;;;;5054873;28;20179;-74
2022/06/27 04:58:47;;;;;;;0.40;0.40;;;18.10;99.90;;;;;;5054538;28;20222;-73
2022/06/27 05:01:13;;;;;;;0.30;0.30;;;18.20;99.90;;;;;;5053792;28;20172;-74
2022/06/27 05:03:38;;;;;;;0.40;0.40;;;18.30;99.90;;;;;;5054526;28;20285;-74
2022/06/27 05:06:04;;;;;;;0.30;0.30;;;18.40;99.90;;;;;;5054410;28;20667;-73
2022/06/27 05:08:31;;;;;;;0.30;0.30;;;18.40;99.90;;;;;;5054272;28;20825;-72
2022/06/27 05:10:57;;;;;;;0.30;0.30;;;18.50;99.90;;;;;;5053691;28;20175;-70
2022/06/27 05:13:23;;;;;;;0.30;0.30;;;18.70;99.90;;;;;;5054279;28;20206;-70
2022/06/27 05:15:48;;;;;;;0.30;0.30;;;18.90;99.90;;;;;;5054059;28;20168;-70
2022/06/27 05:18:15;;;;;;;0.30;0.30;;;19.10;99.90;;;;;;5054037;28;20211;-73
2022/06/27 05:20:42;;;;;;;0.30;0.30;;;19.20;99.90;;;;;;5053608;28;20183;-70
2022/06/27 05:23:08;;;;;;;0.37;0.37;;;19.30;99.90;;;;;;5053559;28;20234;-72
2022/06/27 05:25:33;;;;;;;0.40;0.40;;;19.50;99.90;;;;;;5053187;28;20214;-72
2022/06/27 05:28:02;;;;;;;0.30;0.30;;;19.50;99.90;;;;;;5052849;28;20210;-73
2022/06/27 05:30:28;;;;;;;0.30;0.30;;;19.50;99.90;;;;;;5053005;28;20183;-73
2022/06/27 05:32:54;;;;;;;0.30;0.30;;;19.50;99.90;;;;;;5053209;28;20199;-73
2022/06/27 05:35:21;;;;;;;0.33;0.33;;;19.50;99.90;;;;;;5053342;28;20573;-72
2022/06/27 05:37:47;;;;;;;0.30;0.30;;;19.40;99.90;;;;;;5052353;28;20203;-72
2022/06/27 05:40:12;;;;;;;0.40;0.40;;;19.30;99.90;;;;;;5052173;28;20282;-72
2022/06/27 05:42:38;;;;;;;0.40;0.40;;;19.30;99.90;;;;;;5053884;28;20245;-72
2022/06/27 05:45:04;;;;;;;0.30;0.30;;;19.30;99.90;;;;;;5053671;28;20259;-72
2022/06/27 05:47:31;;;;;;;0.30;0.30;;;19.40;99.90;;;;;;5053742;28;20195;-72
2022/06/27 05:49:59;;;;;;;0.30;0.30;;;19.50;99.90;;;;;;5052903;28;20608;-72
2022/06/27 05:52:25;;;;;;;0.30;0.30;;;19.70;99.90;;;;;;5053079;28;20226;-73
2022/06/27 05:54:51;;;;;;;0.40;0.40;;;19.80;99.90;;;;;;5053485;28;20535;-73
2022/06/27 05:57:18;;;;;;;0.30;0.30;;;19.90;99.90;;;;;;5053314;28;20575;-73
2022/06/27 05:59:44;;;;;;;0.33;0.33;;;20.00;99.90;;;;;;5052968;28;20199;-73
2022/06/27 06:02:10;;;;;;;0.30;0.30;;;20.00;99.90;;;;;;5053407;28;20202;-73
2022/06/27 06:04:36;;;;;;;0.30;0.30;;;20.10;99.90;;;;;;5053389;28;20179;-73
2022/06/27 06:07:03;;;;;;;0.37;0.37;;;20.10;99.90;;;;;;5053227;28;20583;-73
2022/06/27 06:09:28;;;;;;;0.30;0.30;;;20.20;99.90;;;;;;5052654;28;20649;-73
2022/06/27 06:11:55;;;;;;;0.30;0.30;;;20.20;99.90;;;;;;5053244;28;20213;-72
2022/06/27 06:14:21;;;;;;;0.30;0.30;;;20.10;99.90;;;;;;5053026;28;20640;-72
2022/06/27 06:16:48;;;;;;;0.30;0.30;;;20.20;99.90;;;;;;5053091;28;20187;-73
2022/06/27 06:19:14;;;;;;;0.30;0.30;;;20.10;99.90;;;;;;5052419;28;20237;-72
2022/06/27 06:21:40;;;;;;;0.30;0.30;;;20.10;99.90;;;;;;5052862;28;20245;-72
2022/06/27 06:24:08;;;;;;;0.30;0.30;;;20.10;99.90;;;;;;5052774;28;20207;-72
2022/06/27 06:26:33;;;;;;;0.30;0.30;;;20.10;99.90;;;;;;5053082;28;20187;-72
2022/06/27 06:29:05;;;;;;;0.37;0.37;;;20.00;99.90;;;;;;5052454;28;20603;-72
2022/06/27 06:31:31;;;;;;;0.40;0.40;;;20.00;99.90;;;;;;5052949;28;20270;-72
2022/06/27 06:33:57;;;;;;;0.30;0.30;;;20.10;99.90;;;;;;5052628;28;20254;-72
2022/06/27 06:36:23;;;;;;;0.30;0.30;;;20.30;99.90;;;;;;5053123;28;20183;-71
2022/06/27 06:38:51;;;;;;;0.30;0.30;;;20.60;99.90;;;;;;5052841;28;20256;-72
2022/06/27 06:41:17;;;;;;;0.30;0.30;;;20.70;99.90;;;;;;5052705;28;20174;-72
2022/06/27 06:43:43;;;;;;;0.37;0.37;;;20.90;99.90;;;;;;5052848;28;20182;-73
2022/06/27 06:46:10;;;;;;;0.30;0.30;;;21.00;99.90;;;;;;5052711;28;20320;-73
2022/06/27 06:48:37;;;;;;;0.30;0.30;;;20.90;99.90;;;;;;5052481;28;20202;-73
2022/06/27 06:51:04;;;;;;;0.30;0.30;;;20.90;99.90;;;;;;5051977;28;20179;-73
2022/06/27 06:53:29;;;;;;;0.30;0.30;;;21.10;99.90;;;;;;5052779;28;20249;-73
2022/06/27 06:55:57;;;;;;;0.30;0.30;;;21.30;99.90;;;;;;5053131;28;20640;-73
2022/06/27 06:58:25;;;;;;;0.40;0.40;;;21.60;99.90;;;;;;5052221;28;20250;-73
2022/06/27 07:00:51;;;;;;;0.33;0.33;;;21.80;99.90;;;;;;5051822;28;20175;-72
2022/06/27 07:03:18;;;;;;;0.30;0.30;;;21.90;83.60;;;;;;5052384;28;20314;-73
2022/06/27 07:05:44;;;;;;;0.37;0.37;;;22.10;92.00;;;;;;5052245;28;20179;-73
2022/06/27 07:08:10;;;;;;;0.30;0.30;;;22.10;23.50;;;;;;5052264;28;20229;-73
2022/06/27 07:10:36;;;;;;;0.40;0.40;;;22.20;1.00;;;;;;5051710;28;20604;-73
2022/06/27 07:13:02;;;;;;;0.30;0.30;;;22.30;1.00;;;;;;5052044;28;20250;-73
2022/06/27 07:15:28;;;;;;;0.33;0.33;;;22.60;1.00;;;;;;5052083;28;20641;-73
2022/06/27 07:17:54;;;;;;;0.30;0.30;;;22.70;1.00;;;;;;5051800;28;20228;-73
2022/06/27 07:20:20;;;;;;;0.30;0.30;;;22.90;1.00;;;;;;5051376;28;20181;-73
2022/06/27 07:22:48;;;;;;;0.40;0.40;;;23.00;1.00;;;;;;5052155;28;20286;-73
2022/06/27 07:25:13;;;;;;;0.30;0.30;;;23.00;1.00;;;;;;5052080;28;20220;-73
2022/06/27 07:27:40;;;;;;;0.23;0.23;;;22.90;1.00;;;;;;5051967;28;20175;-73
2022/06/27 07:30:09;;;;;;;0.30;0.30;;;22.80;1.00;;;;;;5051418;28;20175;-73
2022/06/27 07:32:35;;;;;;;0.20;0.20;;;22.80;1.00;;;;;;5051620;28;20225;-73
2022/06/27 07:35:01;;;;;;;0.30;0.30;;;22.90;1.00;;;;;;5051948;28;20175;-73
2022/06/27 07:37:27;;;;;;;0.30;0.30;;;23.00;1.00;;;;;;5051634;28;20254;-73
2022/06/27 07:39:54;;;;;;;0.37;0.37;;;23.30;1.00;;;;;;5051085;28;20170;-73
2022/06/27 07:42:20;;;;;;;0.30;0.30;;;23.70;99.90;;;;;;5051365;28;20203;-72
2022/06/27 07:44:45;;;;;;;0.20;0.20;;;23.90;1.00;;;;;;5051365;28;20171;-73
2022/06/27 07:47:11;;;;;;;0.30;0.30;;;24.10;99.90;;;;;;5051285;28;21303;-73
2022/06/27 07:49:36;;;;;;;0.33;0.33;;;24.10;99.90;;;;;;5050667;28;20245;-73
2022/06/27 07:52:02;;;;;;;0.30;0.30;;;24.00;1.00;;;;;;5051432;28;20187;-73
2022/06/27 07:54:28;;;;;;;0.30;0.30;;;23.80;99.90;;;;;;5051332;28;20182;-72
2022/06/27 07:56:56;;;;;;;0.30;0.30;;;23.70;1.00;;;;;;5051027;28;20175;-72
2022/06/27 07:59:22;;;;;;;0.20;0.20;;;23.60;99.90;;;;;;5050662;28;20313;-72
2022/06/27 08:01:49;;;;;;;0.30;0.30;;;23.50;99.90;;;;;;5050516;28;20237;-73
2022/06/27 08:04:15;;;;;;;0.30;0.30;;;23.40;99.90;;;;;;5051397;28;20186;-73
2022/06/27 08:06:46;;;;;;;0.30;0.30;;;23.20;99.90;;;;;;5051324;28;20179;-72
2022/06/27 08:09:12;;;;;;;0.33;0.33;;;23.30;1.00;;;;;;5050760;28;20179;-72
2022/06/27 08:11:43;;;;;;;0.30;0.30;;;23.70;1.00;;;;;;5050975;28;20203;-72
2022/06/27 08:14:12;;;;;;;0.20;0.20;;;24.40;1.00;;;;;;5051154;28;20538;-72
2022/06/27 08:16:39;;;;;;;0.30;0.30;;;24.90;99.90;;;;;;5051393;28;20199;-73
2022/06/27 08:19:06;;;;;;;0.30;0.30;;;25.20;99.90;;;;;;5050694;28;20575;-73
2022/06/27 08:21:34;;;;;;;0.30;0.30;;;25.50;1.00;;;;;;5051222;28;20195;-73
2022/06/27 08:24:03;;;;;;;0.30;0.30;;;25.60;99.90;;;;;;5051207;28;20207;-72
2022/06/27 08:26:29;;;;;;;0.40;0.40;;;25.60;99.90;;;;;;5051107;28;20186;-73
2022/06/27 08:28:58;;;;;;;0.30;0.30;;;25.80;1.00;;;;;;5050960;28;20197;-73
2022/06/27 08:31:25;;;;;;;0.30;0.30;;;26.00;99.90;;;;;;5051135;28;20183;-73
2022/06/27 08:33:51;;;;;;;0.30;0.30;;;26.20;99.90;;;;;;5051162;28;20171;-73
2022/06/27 08:36:17;;;;;;;0.40;0.40;;;26.30;1.00;;;;;;5051050;28;20183;-72
2022/06/27 08:38:50;;;;;;;0.40;0.40;;;26.40;1.00;;;;;;5050853;28;20587;-73
2022/06/27 08:41:20;;;;;;;0.30;0.30;;;26.20;1.00;;;;;;5050667;28;20189;-73
2022/06/27 08:43:48;;;;;;;0.40;0.40;;;26.10;1.00;;;;;;5051156;28;20175;-73
2022/06/27 08:46:16;;;;;;;0.43;0.43;;;25.80;1.00;;;;;;5051010;28;20203;-72
2022/06/27 08:48:45;;;;;;;0.40;0.40;;;25.60;1.00;;;;;;5050724;28;20194;-73
2022/06/27 08:51:11;;;;;;;0.30;0.30;;;25.60;1.00;;;;;;5050677;28;20537;-72
2022/06/27 08:53:38;;;;;;;0.30;0.30;;;25.40;99.90;;;;;;5050829;28;20670;-73
2022/06/27 08:56:05;;;;;;;0.40;0.40;;;25.20;1.00;;;;;;5050838;28;20176;-73
2022/06/27 08:58:31;;;;;;;0.30;0.30;;;25.70;99.90;;;;;;5050809;28;20211;-72
2022/06/27 09:00:57;;;;;;;0.30;0.30;;;26.40;99.90;;;;;;5050476;28;20198;-73
2022/06/27 09:03:23;;;;;;;0.40;0.40;;;26.50;16.90;;;;;;5050636;28;20203;-72
2022/06/27 09:06:00;;;;;;;0.50;0.50;;;26.60;40.00;;;;;;5050394;28;20190;-72
2022/06/27 09:08:28;;;;;;;0.30;0.30;;;26.60;99.90;;;;;;5050554;28;20175;-73
2022/06/27 09:10:56;;;;;;;0.40;0.40;;;26.30;93.20;;;;;;5050336;28;20176;-73
2022/06/27 09:13:22;;;;;;;0.50;0.50;;;26.70;1.00;;;;;;5052451;28;20204;-72
2022/06/27 09:15:59;;;;;;;0.40;0.40;;;27.40;1.00;;;;;;5054291;28;20187;-73
2022/06/27 09:18:34;;;;;;;0.33;0.33;;;27.90;1.00;;;;;;5054279;28;20753;-73
2022/06/27 09:21:03;;;;;;;0.40;0.40;;;27.90;1.00;;;;;;5053998;28;20171;-73
2022/06/27 09:23:35;;;;;;;0.40;0.40;;;27.80;1.00;;;;;;5053925;28;20695;-73
2022/06/27 09:26:21;;;;;;;0.40;0.40;;;28.10;1.00;;;;;;5054383;28;20202;-73
2022/06/27 09:28:57;;;;;;;0.50;0.50;;;28.70;1.00;;;;;;5053991;28;20720;-73
2022/06/27 09:31:30;;;;;;;0.40;0.40;;;28.70;1.00;;;;;;5054267;28;20261;-73
2022/06/27 09:34:23;;;;;;;0.60;0.60;;;28.40;1.00;;;;;;5053912;28;20703;-73
2022/06/27 09:36:54;;;;;;;0.40;0.40;;;28.10;1.00;;;;;;5053896;28;20171;-73
2022/06/27 09:39:37;;;;;;;0.60;0.60;;;27.70;1.00;;;;;;5053210;28;20199;-73
2022/06/27 09:42:05;;;;;;;0.43;0.43;;;27.40;1.00;;;;;;5053870;28;20610;-73
2022/06/27 09:44:34;;;;;;;0.40;0.40;;;26.90;1.00;;;;;;5053686;28;20663;-73
2022/06/27 09:47:15;;;;;;;0.40;0.40;;;26.30;1.00;;;;;;5053885;28;20549;-73
2022/06/27 09:49:43;;;;;;;0.40;0.40;;;26.10;93.10;;;;;;5053082;28;20214;-73
2022/06/27 09:52:11;;;;;;;0.40;0.40;;;26.00;1.00;;;;;;5053454;28;20764;-73
2022/06/27 09:54:40;;;;;;;0.30;0.30;;;25.80;20.90;;;;;;5053881;28;20202;-73
2022/06/27 09:57:07;;;;;;;0.30;0.30;;;25.80;99.90;;;;;;5053491;28;20191;-73
2022/06/27 09:59:34;;;;;;;0.40;0.40;;;25.90;99.90;;;;;;5053052;28;20179;-73
2022/06/27 10:02:00;;;;;;;0.30;0.30;;;25.90;46.40;;;;;;5053268;28;20225;-73
2022/06/27 10:04:28;;;;;;;0.60;0.60;;;26.00;99.90;;;;;;5053427;28;20186;-73
2022/06/27 10:06:59;;;;;;;0.33;0.33;;;26.60;99.90;;;;;;5053538;28;20206;-73
2022/06/27 10:09:26;;;;;;;0.40;0.40;;;27.30;99.90;;;;;;5052721;28;20659;-73
2022/06/27 10:12:23;;;;;;;0.43;0.43;;;27.40;1.00;;;;;;5053244;28;20203;-73
2022/06/27 10:15:11;;;;;;;0.40;0.40;;;27.60;1.00;;;;;;5053143;28;20222;-73
2022/06/27 10:17:44;;;;;;;0.40;0.40;;;28.30;1.00;;;;;;5053334;28;20209;-73
2022/06/27 10:20:20;;;;;;;0.60;0.60;;;28.70;1.00;;;;;;5052746;28;20187;-72
2022/06/27 10:23:08;;;;;;;0.40;0.40;;;28.50;1.00;;;;;;5053056;28;20198;-73
2022/06/27 10:25:40;;;;;;;0.40;0.40;;;27.90;1.00;;;;;;5046587;28;20190;-73
2022/06/27 10:30:55;;;;;;;0.40;0.40;;;26.90;22.30;;;;;;5052550;28;20171;-73
2022/06/27 10:33:26;;;;;;;0.40;0.40;;;26.40;99.90;;;;;;5052907;28;20225;-73
2022/06/27 10:36:05;;;;;;;0.27;0.27;;;26.10;99.90;;;;;;5052668;28;20633;-73
2022/06/27 10:38:45;;;;;;;0.40;0.40;;;25.80;99.90;;;;;;5052875;28;20523;-73
2022/06/27 10:41:17;;;;;;;0.33;0.33;;;25.60;1.00;;;;;;5052205;28;20168;-73
2022/06/27 10:43:45;;;;;;;0.30;0.30;;;25.50;1.00;;;;;;5052780;28;20182;-73
2022/06/27 10:46:11;;;;;;;0.40;0.40;;;25.30;99.90;;;;;;5052737;28;20179;-73
2022/06/27 10:48:39;;;;;;;0.30;0.30;;;25.10;26.00;;;;;;5077606;22;20197;-81
2022/06/27 10:51:26;;;;;;;0.30;0.30;;;24.80;99.90;;;;;;5073637;28;20247;-81
2022/06/27 10:54:04;;;;;;;0.40;0.40;;;24.30;1.00;;;;;;5055374;28;20179;-81
2022/06/27 10:56:29;;;;;;;0.30;0.30;;;24.00;1.00;;;;;;5057256;28;20182;-81
2022/06/27 10:58:55;;;;;;;0.30;0.30;;;24.00;99.90;;;;;;5055675;28;20218;-82
2022/06/27 11:01:21;;;;;;;0.30;0.30;;;23.90;1.00;;;;;;5055421;28;20186;-80
2022/06/27 11:03:48;;;;;;;0.30;0.30;;;23.70;99.90;;;;;;5054953;28;20183;-78
2022/06/27 11:06:14;;;;;;;0.30;0.30;;;23.50;1.00;;;;;;5055361;28;20184;-79
2022/06/27 11:08:59;;;;;;;0.30;0.30;;;23.40;99.90;;;;;;5054934;28;20194;-78
2022/06/27 11:11:26;;;;;;;0.40;0.40;;;23.30;99.90;;;;;;5054736;28;20182;-78
2022/06/27 11:13:54;;;;;;;0.40;0.40;;;23.30;1.00;;;;;;5054003;28;20182;-79
2022/06/27 11:16:21;;;;;;;0.30;0.30;;;23.20;1.00;;;;;;5053734;28;20201;-78
2022/06/27 11:18:48;;;;;;;0.30;0.30;;;23.20;1.00;;;;;;5053569;28;20309;-79
2022/06/27 11:21:22;;;;;;;0.40;0.40;;;23.10;62.10;;;;;;5035084;28;20292;-79
2022/06/27 11:24:00;;;;;;;0.40;0.40;;;22.90;99.90;;;;;;5054092;28;20182;-78
2022/06/27 11:26:33;;;;;;;0.30;0.30;;;22.80;99.90;;;;;;5053542;28;20675;-78
2022/06/27 11:31:58;;;;;;;0.30;0.30;;;22.70;1.00;;;;;;5055773;28;20607;-78
2022/06/27 11:34:25;;;;;;;0.30;0.30;;;22.70;1.00;;;;;;5061362;28;20186;-79
2022/06/27 11:36:52;;;;;;;0.30;0.30;;;22.70;1.00;;;;;;5058138;28;20171;-78
2022/06/27 11:39:25;;;;;;;0.23;0.23;;;22.60;1.00;;;;;;5054909;28;20230;-77
2022/06/27 11:41:56;;;;;;;0.30;0.30;;;22.50;99.90;;;;;;5052445;28;20191;-77
2022/06/27 11:44:22;;;;;;;0.30;0.30;;;22.50;99.90;;;;;;5052341;28;20183;-77
2022/06/27 11:46:49;;;;;;;0.30;0.30;;;22.40;99.90;;;;;;5052730;28;20190;-78
2022/06/27 11:49:28;;;;;;;0.30;0.30;;;22.30;99.90;;;;;;5052009;28;20252;-77
2022/06/27 11:52:10;;;;;;;0.30;0.30;;;22.30;1.00;;;;;;5052229;28;20202;-77
2022/06/27 11:54:51;;;;;;;0.30;0.30;;;22.20;99.90;;;;;;5052403;28;20276;-77
2022/06/27 11:57:25;;;;;;;0.30;0.30;;;22.10;1.00;;;;;;5052370;28;20175;-78
2022/06/27 11:59:52;;;;;;;0.30;0.30;;;22.00;1.00;;;;;;5051924;28;20183;-78
2022/06/27 12:02:30;;;;;;;0.23;0.23;;;22.00;1.00;;;;;;5052426;28;20203;-78
2022/06/27 12:05:04;;;;;;;0.30;0.30;;;22.10;1.00;;;;;;5052251;28;20175;-78
2022/06/27 12:07:30;;;;;;;0.30;0.30;;;22.10;1.00;;;;;;5052029;28;20186;-78
2022/06/27 12:09:56;;;;;;;0.30;0.30;;;22.00;1.00;;;;;;5051870;28;20167;-77
2022/06/27 12:12:29;;;;;;;0.30;0.30;;;22.00;1.00;;;;;;5034018;28;20202;-77
2022/06/27 12:14:55;;;;;;;0.30;0.30;;;21.90;1.00;;;;;;5055105;28;20205;-77
2022/06/27 12:17:23;;;;;;;0.30;0.30;;;21.90;1.00;;;;;;5052229;28;20234;-78
2022/06/27 12:20:01;;;;;;;0.30;0.30;;;21.90;1.00;;;;;;5051478;28;20273;-77
2022/06/27 12:22:27;;;;;;;0.30;0.30;;;22.00;1.00;;;;;;5051956;28;20264;-77
2022/06/27 12:24:52;;;;;;;0.30;0.30;;;21.90;1.00;;;;;;5052231;28;20167;-77
2022/06/27 12:27:18;;;;;;;0.30;0.30;;;21.70;1.00;;;;;;5052940;28;20171;-77
2022/06/27 12:29:43;;;;;;;0.30;0.30;;;21.60;1.00;;;;;;5051392;28;20182;-77
2022/06/27 12:32:09;;;;;;;0.40;0.40;;;21.50;1.00;;;;;;5052174;28;20195;-77
2022/06/27 12:34:34;;;;;;;0.30;0.30;;;21.60;1.00;;;;;;5051984;28;20214;-77
2022/06/27 12:37:00;;;;;;;0.30;0.30;;;21.40;1.00;;;;;;5052210;28;20206;-77
2022/06/27 12:39:28;;;;;;;0.30;0.30;;;21.40;1.00;;;;;;5051157;28;20251;-77
2022/06/27 12:41:53;;;;;;;0.27;0.27;;;21.40;1.00;;;;;;5051782;28;20664;-77
2022/06/27 12:44:19;;;;;;;0.30;0.30;;;21.30;1.00;;;;;;5051810;28;20180;-77
2022/06/27 12:46:45;;;;;;;0.30;0.30;;;21.30;1.00;;;;;;5051733;28;20183;-78
2022/06/27 12:49:11;;;;;;;0.30;0.30;;;21.30;1.00;;;;;;5054378;28;20191;-77
2022/06/27 12:51:36;;;;;;;0.30;0.30;;;21.30;1.00;;;;;;5056226;28;20613;-77
2022/06/27 12:54:02;;;;;;;0.40;0.40;;;21.30;1.00;;;;;;5055979;28;20214;-80
2022/06/27 12:56:28;;;;;;;0.40;0.40;;;21.30;1.00;;;;;;5055885;28;20258;-78
2022/06/27 12:58:53;;;;;;;0.30;0.30;;;21.40;1.00;;;;;;5055206;28;20214;-77